Weather History for KORC - March, 2014

Change the Weather History Date:

Wednesday, March 26, 2014

  Actual Average Record
Temperature  
Mean Temperature 42 °F -  
Max Temperature 64 °F 49 °F 78 °F (2007)
Min Temperature 19 °F 31 °F 12 °F (2013)
Degree Days  
Heating Degree Days 24    
Moisture  
Dew Point 15 °F    
Average Humidity 42    
Maximum Humidity 76    
Minimum Humidity 23    
Precipitation  
Precipitation 0.00 in - - ()
Sea Level Pressure  
Sea Level Pressure 29.79 in    
Wind  
Wind Speed 14 mph (South)    
Max Wind Speed 34 mph    
Max Gust Speed 43 mph    
Visibility 10 miles    
Events      
Averages and records for this station are not official NWS values.
T = Trace of Precipitation, MM = Missing Value Source: NWS Daily Summary

Daily Weather History Graph

Daily Weather History Graph

Search for Another Location

Airport or City:

Trip Planner

Search our weather history database for the weather conditions in past years. The results will help you decide how hot, cold, wet, or windy it might be!

Date:

Astronomy

Mar. 26, 2014 Rise Set
Actual Time 7:16 AM CDT 7:43 PM CDT
Civil Twilight 6:48 AM CDT 8:12 PM CDT
Nautical Twilight 6:14 AM CDT 8:45 PM CDT
Astronomical Twilight 5:40 AM CDT 9:20 PM CDT
Moon 4:32 AM CDT (3/26) 3:17 PM CDT (3/26)
Length of Visible Light 13h 23m
Length of Day
12h 26m
Waning Crescent, 21% of the Moon is Illuminated
Mar 26
Waning Crescent
Mar 30
New
Apr 7
First Quarter
Apr 15
Full
Apr 22
Last Quarter

Hourly Weather History & Observations

Time (CDT) Temp. Windchill Dew Point Humidity Pressure Visibility Wind Dir Wind Speed Gust Speed Precip Events Conditions
12:15 AM 19.4 °F 12.8 °F 3.2 °F 49% 30.09 in 10.0 mi SE 4.6 mph - N/A   Clear
12:35 AM 21.2 °F 14.9 °F 3.2 °F 46% 30.08 in 10.0 mi SE 4.6 mph - N/A   Clear
12:55 AM 21.2 °F 14.9 °F 3.2 °F 46% 30.07 in 10.0 mi SE 4.6 mph - N/A   Clear
1:15 AM 21.2 °F 13.6 °F 3.2 °F 46% 30.07 in 10.0 mi SE 5.8 mph - N/A   Clear
1:35 AM 21.2 °F 14.9 °F 3.2 °F 46% 30.06 in 10.0 mi SE 4.6 mph - N/A   Clear
1:55 AM 21.2 °F 13.6 °F 3.2 °F 46% 30.06 in 10.0 mi SE 5.8 mph - N/A   Clear
2:15 AM 21.2 °F 14.9 °F 3.2 °F 46% 30.05 in 10.0 mi SE 4.6 mph - N/A   Clear
2:35 AM 23.0 °F 14.7 °F 3.2 °F 43% 30.05 in 10.0 mi SE 6.9 mph - N/A   Clear
2:55 AM 23.0 °F 13.9 °F 1.4 °F 39% 30.04 in 10.0 mi SSE 8.1 mph - N/A   Clear
3:15 AM 24.8 °F 16.1 °F 1.4 °F 36% 30.03 in 10.0 mi SSE 8.1 mph - N/A   Scattered Clouds
3:35 AM 24.8 °F 16.9 °F 3.2 °F 40% 30.03 in 10.0 mi SSE 6.9 mph - N/A   Clear
3:55 AM 24.8 °F 14.6 °F 1.4 °F 36% 30.01 in 10.0 mi SSE 10.4 mph - N/A   Clear
4:15 AM 23.0 °F 13.9 °F 3.2 °F 43% 30.01 in 10.0 mi SSE 8.1 mph - N/A   Clear
4:35 AM 23.0 °F 12.4 °F 3.2 °F 43% 29.99 in 10.0 mi SSE 10.4 mph - N/A   Clear
4:55 AM 21.2 °F 10.9 °F 3.2 °F 46% 29.98 in 10.0 mi SSE 9.2 mph - N/A   Clear
5:15 AM 23.0 °F 13.1 °F 3.2 °F 43% 29.96 in 10.0 mi SSE 9.2 mph - N/A   Clear
5:35 AM 23.0 °F 12.4 °F 3.2 °F 43% 29.95 in 10.0 mi SSE 10.4 mph 18.4 mph N/A   Clear
5:55 AM 24.8 °F 14.0 °F 3.2 °F 40% 29.94 in 10.0 mi SSE 11.5 mph 17.3 mph N/A   Clear
6:15 AM 24.8 °F 14.6 °F 5.0 °F 43% 29.93 in 10.0 mi SSE 10.4 mph 17.3 mph N/A   Clear
6:35 AM 24.8 °F 13.4 °F 5.0 °F 43% 29.92 in 10.0 mi SSE 12.7 mph - N/A   Clear
6:55 AM 24.8 °F 13.4 °F 5.0 °F 43% 29.92 in 10.0 mi SSE 12.7 mph 18.4 mph N/A   Clear
7:15 AM 24.8 °F 13.4 °F 6.8 °F 46% 29.91 in 10.0 mi SSE 12.7 mph 16.1 mph N/A   Clear
7:35 AM 26.6 °F 15.2 °F 6.8 °F 43% 29.90 in 10.0 mi SSE 13.8 mph 18.4 mph N/A   Clear
7:55 AM 26.6 °F 15.2 °F 8.6 °F 47% 29.89 in 10.0 mi SSE 13.8 mph 21.9 mph N/A   Clear
8:15 AM 28.4 °F 17.5 °F 8.6 °F 43% 29.89 in 10.0 mi SSE 13.8 mph 21.9 mph N/A   Clear
8:35 AM 28.4 °F 18.5 °F 8.6 °F 43% 29.88 in 10.0 mi SSE 11.5 mph 18.4 mph N/A   Clear
8:55 AM 30.2 °F 18.9 °F 8.6 °F 40% 29.86 in 10.0 mi SSE 16.1 mph 26.5 mph N/A   Clear
9:15 AM 33.8 °F 22.2 °F 10.4 °F 38% 29.84 in 10.0 mi South 20.7 mph 31.1 mph N/A   Clear
9:35 AM 33.8 °F 21.9 °F 10.4 °F 38% 29.83 in 10.0 mi South 21.9 mph 31.1 mph N/A   Clear
9:55 AM 35.6 °F 24.5 °F 10.4 °F 35% 29.82 in 10.0 mi South 20.7 mph 28.8 mph N/A   Clear
10:15 AM 37.4 °F 26.4 °F 12.2 °F 36% 29.81 in 10.0 mi South 23.0 mph 29.9 mph N/A   Clear
10:35 AM 39.2 °F 28.3 °F 12.2 °F 33% 29.80 in 10.0 mi South 25.3 mph 33.4 mph N/A   Clear
10:55 AM 44.6 °F 35.1 °F 14.0 °F 29% 29.78 in 10.0 mi South 27.6 mph 35.7 mph N/A   Clear
11:15 AM 44.6 °F 34.7 °F 15.8 °F 31% 29.77 in 10.0 mi South 29.9 mph 39.1 mph N/A   Clear
11:35 AM 44.6 °F 34.4 °F 15.8 °F 31% 29.75 in 10.0 mi South 32.2 mph 39.1 mph N/A   Clear
11:55 AM 46.4 °F 37.0 °F 15.8 °F 29% 29.73 in 10.0 mi South 31.1 mph 39.1 mph N/A   Clear
12:15 PM 46.4 °F 37.9 °F 15.8 °F 29% 29.72 in 10.0 mi South 25.3 mph 35.7 mph N/A   Clear
12:35 PM 48.2 °F - 15.8 °F 27% 29.70 in 10.0 mi South 26.5 mph 36.8 mph N/A   Clear
12:55 PM 50.0 °F - 17.6 °F 28% 29.68 in 10.0 mi South 26.5 mph 40.3 mph N/A   Clear
1:15 PM 51.8 °F - 17.6 °F 26% 29.67 in 10.0 mi South 26.5 mph 35.7 mph N/A   Clear
1:35 PM 53.6 °F - 19.4 °F 26% 29.65 in 10.0 mi SSW 28.8 mph 42.6 mph N/A   Clear
1:55 PM 53.6 °F - 19.4 °F 26% 29.63 in 10.0 mi South 28.8 mph 39.1 mph N/A   Clear
2:15 PM 55.4 °F - 19.4 °F 25% 29.61 in 10.0 mi South 33.4 mph 38.0 mph N/A   Clear
2:35 PM 55.4 °F - 19.4 °F 25% 29.60 in 10.0 mi South 26.5 mph 36.8 mph N/A   Clear
2:55 PM 57.2 °F - 21.2 °F 25% 29.58 in 10.0 mi South 29.9 mph 39.1 mph N/A   Clear
3:35 PM 60.8 °F - 23.0 °F 23% 29.55 in 10.0 mi South 31.1 mph 41.4 mph N/A   Clear
4:35 PM 62.6 °F - 24.8 °F 24% 29.51 in 10.0 mi South 26.5 mph 34.5 mph N/A   Clear
5:15 PM 64.4 °F - 26.6 °F 24% 29.48 in 10.0 mi South 29.9 mph 39.1 mph N/A   Clear
6:15 PM 62.6 °F - 30.2 °F 30% 29.47 in 7.0 mi SSW 32.2 mph 39.1 mph N/A   Clear
7:15 PM 57.2 °F - 35.6 °F 44% 29.47 in 7.0 mi South 32.2 mph 39.1 mph N/A   Clear
8:55 PM 50.0 °F - 37.4 °F 62% 29.48 in 10.0 mi South 31.1 mph 42.6 mph N/A   Overcast
9:55 PM 48.2 °F - 39.2 °F 71% 29.48 in 10.0 mi South 34.5 mph 40.3 mph N/A   Overcast
10:15 PM 46.4 °F 37.2 °F 39.2 °F 76% 29.48 in 10.0 mi South 29.9 mph 36.8 mph N/A   Overcast
10:35 PM 46.4 °F 36.9 °F 39.2 °F 76% 29.48 in 10.0 mi South 32.2 mph 42.6 mph N/A   Overcast
10:55 PM 46.4 °F 37.7 °F 37.4 °F 71% 29.48 in 10.0 mi South 26.5 mph 39.1 mph N/A   Overcast
11:15 PM 46.4 °F 37.5 °F 37.4 °F 71% 29.49 in 10.0 mi South 27.6 mph 35.7 mph N/A   Overcast
11:35 PM 44.6 °F 35.7 °F 37.4 °F 76% 29.50 in 10.0 mi SSW 24.2 mph 33.4 mph N/A   Overcast
11:55 PM 44.6 °F 35.3 °F 37.4 °F 76% 29.49 in 10.0 mi SSW 26.5 mph 34.5 mph N/A   Overcast